sensor_id;sensor_type;location;lat;lon;timestamp;temperature;humidity
75010;DHT22;63564;46.840;18.336;2023-02-23T00:01:52;5.36;90.48
75010;DHT22;63564;46.840;18.336;2023-02-23T00:04:52;5.36;90.74
75010;DHT22;63564;46.840;18.336;2023-02-23T00:07:53;5.40;90.97
75010;DHT22;63564;46.840;18.336;2023-02-23T00:10:53;5.49;90.31
75010;DHT22;63564;46.840;18.336;2023-02-23T00:13:57;5.45;90.38
75010;DHT22;63564;46.840;18.336;2023-02-23T00:17:00;5.17;89.76
75010;DHT22;63564;46.840;18.336;2023-02-23T00:20:01;4.72;90.63
75010;DHT22;63564;46.840;18.336;2023-02-23T00:23:06;4.63;91.09
75010;DHT22;63564;46.840;18.336;2023-02-23T00:26:06;4.72;91.30
75010;DHT22;63564;46.840;18.336;2023-02-23T00:29:22;4.66;91.82
75010;DHT22;63564;46.840;18.336;2023-02-23T00:32:23;4.64;91.20
75010;DHT22;63564;46.840;18.336;2023-02-23T00:35:24;4.48;91.74
75010;DHT22;63564;46.840;18.336;2023-02-23T00:38:24;4.45;92.73
75010;DHT22;63564;46.840;18.336;2023-02-23T00:41:26;4.45;92.73
75010;DHT22;63564;46.840;18.336;2023-02-23T00:44:30;4.46;92.77
75010;DHT22;63564;46.840;18.336;2023-02-23T00:47:32;4.41;92.38
75010;DHT22;63564;46.840;18.336;2023-02-23T00:50:35;4.19;92.27
75010;DHT22;63564;46.840;18.336;2023-02-23T00:53:38;4.11;92.92
75010;DHT22;63564;46.840;18.336;2023-02-23T00:56:39;4.11;93.65
75010;DHT22;63564;46.840;18.336;2023-02-23T00:59:39;4.08;93.81
75010;DHT22;63564;46.840;18.336;2023-02-23T01:02:40;4.08;93.58
75010;DHT22;63564;46.840;18.336;2023-02-23T01:05:41;4.02;93.26
75010;DHT22;63564;46.840;18.336;2023-02-23T01:08:45;3.98;93.18
75010;DHT22;63564;46.840;18.336;2023-02-23T01:11:48;3.88;93.04
75010;DHT22;63564;46.840;18.336;2023-02-23T01:14:48;3.86;93.95
75010;DHT22;63564;46.840;18.336;2023-02-23T01:17:49;3.87;94.24
75010;DHT22;63564;46.840;18.336;2023-02-23T01:20:49;3.80;93.76
75010;DHT22;63564;46.840;18.336;2023-02-23T01:23:50;3.66;94.16
75010;DHT22;63564;46.840;18.336;2023-02-23T01:26:51;3.69;94.73
75010;DHT22;63564;46.840;18.336;2023-02-23T01:29:52;3.76;95.01
75010;DHT22;63564;46.840;18.336;2023-02-23T01:32:54;3.77;94.70
75010;DHT22;63564;46.840;18.336;2023-02-23T01:35:58;3.60;94.21
75010;DHT22;63564;46.840;18.336;2023-02-23T01:38:58;3.49;94.05
75010;DHT22;63564;46.840;18.336;2023-02-23T01:41:59;3.36;94.32
75010;DHT22;63564;46.840;18.336;2023-02-23T01:45:34;3.18;94.09
75010;DHT22;63564;46.840;18.336;2023-02-23T01:48:37;2.90;94.88
75010;DHT22;63564;46.840;18.336;2023-02-23T01:51:44;2.81;95.26
75010;DHT22;63564;46.840;18.336;2023-02-23T01:54:50;2.94;96.01
75010;DHT22;63564;46.840;18.336;2023-02-23T01:57:56;3.00;96.05
75010;DHT22;63564;46.840;18.336;2023-02-23T02:01:00;2.95;95.26
75010;DHT22;63564;46.840;18.336;2023-02-23T02:04:03;2.84;94.71
75010;DHT22;63564;46.840;18.336;2023-02-23T02:07:05;2.77;95.57
75010;DHT22;63564;46.840;18.336;2023-02-23T02:10:07;2.76;95.49
75010;DHT22;63564;46.840;18.336;2023-02-23T02:13:16;2.77;94.76
75010;DHT22;63564;46.840;18.336;2023-02-23T02:16:33;2.80;94.91
75010;DHT22;63564;46.840;18.336;2023-02-23T02:33:41;3.09;94.57
75010;DHT22;63564;46.840;18.336;2023-02-23T02:37:07;3.43;93.23
75010;DHT22;63564;46.840;18.336;2023-02-23T02:40:21;3.58;92.46
75010;DHT22;63564;46.840;18.336;2023-02-23T02:44:29;3.73;92.22
75010;DHT22;63564;46.840;18.336;2023-02-23T02:47:17;3.88;91.40
75010;DHT22;63564;46.840;18.336;2023-02-23T02:50:55;3.86;91.15
75010;DHT22;63564;46.840;18.336;2023-02-23T02:57:17;3.62;93.52
75010;DHT22;63564;46.840;18.336;2023-02-23T03:00:29;3.66;93.33
75010;DHT22;63564;46.840;18.336;2023-02-23T03:03:48;3.81;93.06
75010;DHT22;63564;46.840;18.336;2023-02-23T03:11:03;3.91;93.53
75010;DHT22;63564;46.840;18.336;2023-02-23T03:14:33;3.97;93.36
75010;DHT22;63564;46.840;18.336;2023-02-23T03:18:59;4.12;93.05
75010;DHT22;63564;46.840;18.336;2023-02-23T03:21:53;4.21;92.35
75010;DHT22;63564;46.840;18.336;2023-02-23T03:25:17;4.18;92.60
75010;DHT22;63564;46.840;18.336;2023-02-23T03:32:17;4.19;92.30
75010;DHT22;63564;46.840;18.336;2023-02-23T03:35:58;4.25;92.10
75010;DHT22;63564;46.840;18.336;2023-02-23T03:39:31;4.12;93.03
75010;DHT22;63564;46.840;18.336;2023-02-23T03:42:52;4.18;92.48
75010;DHT22;63564;46.840;18.336;2023-02-23T03:46:13;4.22;92.42
75010;DHT22;63564;46.840;18.336;2023-02-23T03:49:35;4.26;92.52
75010;DHT22;63564;46.840;18.336;2023-02-23T03:52:57;4.39;91.87
75010;DHT22;63564;46.840;18.336;2023-02-23T03:56:18;4.46;91.97
75010;DHT22;63564;46.840;18.336;2023-02-23T03:59:43;4.49;92.13
75010;DHT22;63564;46.840;18.336;2023-02-23T04:03:05;4.56;92.13
75010;DHT22;63564;46.840;18.336;2023-02-23T04:06:28;4.63;91.88
75010;DHT22;63564;46.840;18.336;2023-02-23T04:09:50;4.67;91.89
75010;DHT22;63564;46.840;18.336;2023-02-23T04:13:17;4.64;91.97
75010;DHT22;63564;46.840;18.336;2023-02-23T04:16:19;4.63;92.70
75010;DHT22;63564;46.840;18.336;2023-02-23T04:19:20;4.72;92.14
75010;DHT22;63564;46.840;18.336;2023-02-23T04:22:21;4.79;91.87
75010;DHT22;63564;46.840;18.336;2023-02-23T04:25:21;4.77;91.94
75010;DHT22;63564;46.840;18.336;2023-02-23T04:28:24;4.81;92.29
75010;DHT22;63564;46.840;18.336;2023-02-23T04:31:24;4.94;91.55
75010;DHT22;63564;46.840;18.336;2023-02-23T04:34:25;4.97;91.40
75010;DHT22;63564;46.840;18.336;2023-02-23T04:37:25;5.10;91.07
75010;DHT22;63564;46.840;18.336;2023-02-23T04:40:26;5.11;90.75
75010;DHT22;63564;46.840;18.336;2023-02-23T04:43:26;5.04;91.36
75010;DHT22;63564;46.840;18.336;2023-02-23T04:46:27;5.02;91.67
75010;DHT22;63564;46.840;18.336;2023-02-23T04:49:27;5.11;91.38
75010;DHT22;63564;46.840;18.336;2023-02-23T04:52:28;5.15;91.30
75010;DHT22;63564;46.840;18.336;2023-02-23T04:55:28;5.10;91.40
75010;DHT22;63564;46.840;18.336;2023-02-23T04:58:28;5.15;91.56
75010;DHT22;63564;46.840;18.336;2023-02-23T05:01:29;5.18;91.24
75010;DHT22;63564;46.840;18.336;2023-02-23T05:04:32;5.65;92.17
75010;DHT22;63564;46.840;18.336;2023-02-23T05:07:35;5.53;90.11
75010;DHT22;63564;46.840;18.336;2023-02-23T05:10:36;5.27;90.93
75010;DHT22;63564;46.840;18.336;2023-02-23T05:13:36;5.17;91.48
75010;DHT22;63564;46.840;18.336;2023-02-23T05:16:38;5.35;91.38
75010;DHT22;63564;46.840;18.336;2023-02-23T05:19:38;5.28;90.93
75010;DHT22;63564;46.840;18.336;2023-02-23T05:22:39;5.31;90.96
75010;DHT22;63564;46.840;18.336;2023-02-23T05:25:39;5.22;91.47
75010;DHT22;63564;46.840;18.336;2023-02-23T05:28:41;5.39;90.78
75010;DHT22;63564;46.840;18.336;2023-02-23T05:31:41;5.17;91.46
75010;DHT22;63564;46.840;18.336;2023-02-23T05:34:42;5.39;90.66
75010;DHT22;63564;46.840;18.336;2023-02-23T05:37:42;5.39;90.51
75010;DHT22;63564;46.840;18.336;2023-02-23T05:40:43;5.40;90.49
75010;DHT22;63564;46.840;18.336;2023-02-23T05:43:44;5.32;90.70
75010;DHT22;63564;46.840;18.336;2023-02-23T05:46:45;5.42;90.91
75010;DHT22;63564;46.840;18.336;2023-02-23T05:49:46;5.35;90.94
75010;DHT22;63564;46.840;18.336;2023-02-23T05:52:47;5.25;91.25
75010;DHT22;63564;46.840;18.336;2023-02-23T05:55:47;5.27;91.27
75010;DHT22;63564;46.840;18.336;2023-02-23T05:58:53;5.39;90.97
75010;DHT22;63564;46.840;18.336;2023-02-23T06:01:54;5.55;90.65
75010;DHT22;63564;46.840;18.336;2023-02-23T06:04:54;5.71;90.51
75010;DHT22;63564;46.840;18.336;2023-02-23T06:07:55;5.73;89.87
75010;DHT22;63564;46.840;18.336;2023-02-23T06:10:56;5.87;90.50
75010;DHT22;63564;46.840;18.336;2023-02-23T06:13:57;5.87;89.93
75010;DHT22;63564;46.840;18.336;2023-02-23T06:16:58;6.04;89.48
75010;DHT22;63564;46.840;18.336;2023-02-23T06:19:59;6.55;92.62
75010;DHT22;63564;46.840;18.336;2023-02-23T06:23:01;7.21;84.49
75010;DHT22;63564;46.840;18.336;2023-02-23T06:26:01;6.96;85.43
75010;DHT22;63564;46.840;18.336;2023-02-23T06:29:02;6.69;86.41
75010;DHT22;63564;46.840;18.336;2023-02-23T06:32:03;6.59;87.90
75010;DHT22;63564;46.840;18.336;2023-02-23T06:35:05;6.53;86.32
75010;DHT22;63564;46.840;18.336;2023-02-23T06:38:05;6.34;87.48
75010;DHT22;63564;46.840;18.336;2023-02-23T06:41:10;6.36;87.84
75010;DHT22;63564;46.840;18.336;2023-02-23T06:44:11;6.31;87.87
75010;DHT22;63564;46.840;18.336;2023-02-23T06:47:11;6.41;88.47
75010;DHT22;63564;46.840;18.336;2023-02-23T06:50:12;6.25;87.98
75010;DHT22;63564;46.840;18.336;2023-02-23T06:53:13;6.17;88.56
75010;DHT22;63564;46.840;18.336;2023-02-23T06:56:13;6.17;88.53
75010;DHT22;63564;46.840;18.336;2023-02-23T06:59:14;6.14;88.87
75010;DHT22;63564;46.840;18.336;2023-02-23T07:02:15;6.42;88.77
75010;DHT22;63564;46.840;18.336;2023-02-23T07:05:16;6.34;87.54
75010;DHT22;63564;46.840;18.336;2023-02-23T07:08:16;6.46;87.55
75010;DHT22;63564;46.840;18.336;2023-02-23T07:11:17;6.50;86.50
75010;DHT22;63564;46.840;18.336;2023-02-23T07:14:19;6.96;91.39
75010;DHT22;63564;46.840;18.336;2023-02-23T07:17:19;6.96;86.19
75010;DHT22;63564;46.840;18.336;2023-02-23T07:20:19;6.71;86.50
75010;DHT22;63564;46.840;18.336;2023-02-23T07:23:20;6.80;86.92
75010;DHT22;63564;46.840;18.336;2023-02-23T07:26:21;6.87;85.84
75010;DHT22;63564;46.840;18.336;2023-02-23T07:29:21;6.93;85.99
75010;DHT22;63564;46.840;18.336;2023-02-23T07:32:23;7.00;85.75
75010;DHT22;63564;46.840;18.336;2023-02-23T07:35:23;7.21;88.07
75010;DHT22;63564;46.840;18.336;2023-02-23T07:38:24;7.27;84.50
75010;DHT22;63564;46.840;18.336;2023-02-23T07:41:24;7.35;85.89
75010;DHT22;63564;46.840;18.336;2023-02-23T07:44:24;7.28;86.09
75010;DHT22;63564;46.840;18.336;2023-02-23T07:47:25;7.30;86.09
75010;DHT22;63564;46.840;18.336;2023-02-23T07:50:30;7.36;83.86
75010;DHT22;63564;46.840;18.336;2023-02-23T07:53:30;7.38;84.46
75010;DHT22;63564;46.840;18.336;2023-02-23T07:56:31;7.34;83.66
75010;DHT22;63564;46.840;18.336;2023-02-23T07:59:32;7.36;84.53
75010;DHT22;63564;46.840;18.336;2023-02-23T08:02:33;7.38;84.05
75010;DHT22;63564;46.840;18.336;2023-02-23T08:05:33;7.27;83.57
75010;DHT22;63564;46.840;18.336;2023-02-23T08:08:35;7.69;84.03
75010;DHT22;63564;46.840;18.336;2023-02-23T08:11:35;7.68;86.14
75010;DHT22;63564;46.840;18.336;2023-02-23T08:14:36;7.83;80.33
75010;DHT22;63564;46.840;18.336;2023-02-23T08:17:38;7.77;81.30
75010;DHT22;63564;46.840;18.336;2023-02-23T08:20:38;7.58;82.07
75010;DHT22;63564;46.840;18.336;2023-02-23T08:23:39;8.06;82.42
75010;DHT22;63564;46.840;18.336;2023-02-23T08:26:39;8.01;79.67
75010;DHT22;63564;46.840;18.336;2023-02-23T08:29:40;8.03;82.69
75010;DHT22;63564;46.840;18.336;2023-02-23T08:32:40;7.89;79.92
75010;DHT22;63564;46.840;18.336;2023-02-23T08:35:41;7.87;80.50
75010;DHT22;63564;46.840;18.336;2023-02-23T08:38:41;7.79;81.66
75010;DHT22;63564;46.840;18.336;2023-02-23T08:41:42;8.01;84.86
75010;DHT22;63564;46.840;18.336;2023-02-23T08:44:42;8.15;79.26
75010;DHT22;63564;46.840;18.336;2023-02-23T08:47:42;7.90;79.49
75010;DHT22;63564;46.840;18.336;2023-02-23T08:50:43;8.11;79.09
75010;DHT22;63564;46.840;18.336;2023-02-23T08:53:43;8.41;79.23
75010;DHT22;63564;46.840;18.336;2023-02-23T08:56:44;8.41;77.50
75010;DHT22;63564;46.840;18.336;2023-02-23T08:59:44;8.51;78.58
75010;DHT22;63564;46.840;18.336;2023-02-23T09:02:45;8.45;77.26
75010;DHT22;63564;46.840;18.336;2023-02-23T09:05:48;8.42;76.19
75010;DHT22;63564;46.840;18.336;2023-02-23T09:08:49;8.40;75.90
75010;DHT22;63564;46.840;18.336;2023-02-23T09:11:50;8.63;76.21
75010;DHT22;63564;46.840;18.336;2023-02-23T09:14:50;8.42;76.16
75010;DHT22;63564;46.840;18.336;2023-02-23T09:17:52;8.52;75.32
75010;DHT22;63564;46.840;18.336;2023-02-23T09:20:54;8.61;75.28
75010;DHT22;63564;46.840;18.336;2023-02-23T09:23:54;8.92;73.87
75010;DHT22;63564;46.840;18.336;2023-02-23T09:26:55;8.72;75.55
75010;DHT22;63564;46.840;18.336;2023-02-23T09:29:55;8.69;74.31
75010;DHT22;63564;46.840;18.336;2023-02-23T09:32:56;8.79;74.06
75010;DHT22;63564;46.840;18.336;2023-02-23T09:35:56;8.93;73.47
75010;DHT22;63564;46.840;18.336;2023-02-23T09:38:57;9.10;73.53
75010;DHT22;63564;46.840;18.336;2023-02-23T09:42:05;9.04;72.68
75010;DHT22;63564;46.840;18.336;2023-02-23T09:48:54;9.09;72.85
75010;DHT22;63564;46.840;18.336;2023-02-23T09:51:57;9.47;71.79
75010;DHT22;63564;46.840;18.336;2023-02-23T09:54:59;9.74;72.27
75010;DHT22;63564;46.840;18.336;2023-02-23T09:58:17;9.96;69.78
75010;DHT22;63564;46.840;18.336;2023-02-23T10:04:49;10.43;68.74
75010;DHT22;63564;46.840;18.336;2023-02-23T10:07:58;10.75;67.41
75010;DHT22;63564;46.840;18.336;2023-02-23T10:11:32;10.64;66.38
75010;DHT22;63564;46.840;18.336;2023-02-23T10:18:35;10.20;67.28
75010;DHT22;63564;46.840;18.336;2023-02-23T10:21:45;10.73;65.39
75010;DHT22;63564;46.840;18.336;2023-02-23T10:25:09;10.92;64.87
75010;DHT22;63564;46.840;18.336;2023-02-23T10:28:16;10.54;65.78
75010;DHT22;63564;46.840;18.336;2023-02-23T10:31:33;10.58;65.71
75010;DHT22;63564;46.840;18.336;2023-02-23T10:34:36;10.82;65.02
75010;DHT22;63564;46.840;18.336;2023-02-23T10:37:39;10.81;64.67
75010;DHT22;63564;46.840;18.336;2023-02-23T10:40:40;10.58;66.50
75010;DHT22;63564;46.840;18.336;2023-02-23T10:43:41;11.06;64.87
75010;DHT22;63564;46.840;18.336;2023-02-23T10:46:42;11.12;64.15
75010;DHT22;63564;46.840;18.336;2023-02-23T10:49:52;11.12;64.69
75010;DHT22;63564;46.840;18.336;2023-02-23T10:52:59;11.17;63.69
75010;DHT22;63564;46.840;18.336;2023-02-23T10:56:06;11.58;62.68
75010;DHT22;63564;46.840;18.336;2023-02-23T10:59:18;11.64;62.74
75010;DHT22;63564;46.840;18.336;2023-02-23T11:02:23;11.95;61.83
75010;DHT22;63564;46.840;18.336;2023-02-23T11:05:47;12.01;61.42
75010;DHT22;63564;46.840;18.336;2023-02-23T11:08:52;11.26;62.37
75010;DHT22;63564;46.840;18.336;2023-02-23T11:11:59;11.85;62.10
75010;DHT22;63564;46.840;18.336;2023-02-23T11:18:25;12.81;58.54
75010;DHT22;63564;46.840;18.336;2023-02-23T11:21:28;12.26;59.47
75010;DHT22;63564;46.840;18.336;2023-02-23T11:24:38;12.59;59.03
75010;DHT22;63564;46.840;18.336;2023-02-23T11:27:45;12.22;60.63
75010;DHT22;63564;46.840;18.336;2023-02-23T11:30:46;12.53;58.59
75010;DHT22;63564;46.840;18.336;2023-02-23T11:33:48;12.77;58.85
75010;DHT22;63564;46.840;18.336;2023-02-23T11:43:18;13.75;56.62
75010;DHT22;63564;46.840;18.336;2023-02-23T11:46:20;13.06;56.24
75010;DHT22;63564;46.840;18.336;2023-02-23T11:49:32;13.62;55.35
75010;DHT22;63564;46.840;18.336;2023-02-23T11:52:35;13.60;55.45
75010;DHT22;63564;46.840;18.336;2023-02-23T11:55:35;13.40;56.95
75010;DHT22;63564;46.840;18.336;2023-02-23T12:01:50;13.84;55.71
75010;DHT22;63564;46.840;18.336;2023-02-23T12:05:03;14.09;53.79
75010;DHT22;63564;46.840;18.336;2023-02-23T12:08:26;13.98;54.87
75010;DHT22;63564;46.840;18.336;2023-02-23T12:11:37;14.07;53.77
75010;DHT22;63564;46.840;18.336;2023-02-23T12:14:50;14.12;54.20
75010;DHT22;63564;46.840;18.336;2023-02-23T12:18:03;13.75;55.42
75010;DHT22;63564;46.840;18.336;2023-02-23T12:21:26;14.22;54.94
75010;DHT22;63564;46.840;18.336;2023-02-23T12:24:48;13.80;55.44
75010;DHT22;63564;46.840;18.336;2023-02-23T12:27:58;13.66;54.91
75010;DHT22;63564;46.840;18.336;2023-02-23T12:31:19;14.00;55.29
75010;DHT22;63564;46.840;18.336;2023-02-23T12:37:38;14.63;52.98
75010;DHT22;63564;46.840;18.336;2023-02-23T12:40:40;15.05;52.04
75010;DHT22;63564;46.840;18.336;2023-02-23T12:43:51;14.39;53.76
75010;DHT22;63564;46.840;18.336;2023-02-23T12:46:56;13.97;53.50
75010;DHT22;63564;46.840;18.336;2023-02-23T12:53:24;14.22;52.76
75010;DHT22;63564;46.840;18.336;2023-02-23T12:56:34;14.70;51.53
75010;DHT22;63564;46.840;18.336;2023-02-23T13:06:56;14.48;52.39
75010;DHT22;63564;46.840;18.336;2023-02-23T13:16:42;14.35;53.61
75010;DHT22;63564;46.840;18.336;2023-02-23T13:19:51;14.76;51.33
75010;DHT22;63564;46.840;18.336;2023-02-23T13:23:15;14.90;51.78
75010;DHT22;63564;46.840;18.336;2023-02-23T13:32:32;16.10;48.25
75010;DHT22;63564;46.840;18.336;2023-02-23T13:35:34;16.14;47.66
75010;DHT22;63564;46.840;18.336;2023-02-23T13:45:35;15.49;49.32
75010;DHT22;63564;46.840;18.336;2023-02-23T13:48:52;15.63;48.88
75010;DHT22;63564;46.840;18.336;2023-02-23T13:51:59;15.62;49.38
75010;DHT22;63564;46.840;18.336;2023-02-23T13:55:00;15.10;50.39
75010;DHT22;63564;46.840;18.336;2023-02-23T13:58:16;14.81;51.62
75010;DHT22;63564;46.840;18.336;2023-02-23T14:01:21;14.36;52.68
75010;DHT22;63564;46.840;18.336;2023-02-23T14:04:34;14.08;52.97
75010;DHT22;63564;46.840;18.336;2023-02-23T14:07:38;13.91;53.39
75010;DHT22;63564;46.840;18.336;2023-02-23T14:10:42;13.90;53.72
75010;DHT22;63564;46.840;18.336;2023-02-23T14:13:58;13.62;55.33
75010;DHT22;63564;46.840;18.336;2023-02-23T14:20:23;13.47;55.51
75010;DHT22;63564;46.840;18.336;2023-02-23T14:24:02;13.33;55.38
75010;DHT22;63564;46.840;18.336;2023-02-23T14:27:20;13.47;55.31
75010;DHT22;63564;46.840;18.336;2023-02-23T14:30:21;13.35;55.12
75010;DHT22;63564;46.840;18.336;2023-02-23T14:36:42;13.26;57.50
75010;DHT22;63564;46.840;18.336;2023-02-23T14:39:43;13.53;56.10
75010;DHT22;63564;46.840;18.336;2023-02-23T14:42:52;13.47;56.11
75010;DHT22;63564;46.840;18.336;2023-02-23T14:45:56;13.25;56.64
75010;DHT22;63564;46.840;18.336;2023-02-23T14:49:07;13.63;56.23
75010;DHT22;63564;46.840;18.336;2023-02-23T14:55:26;13.46;56.08
75010;DHT22;63564;46.840;18.336;2023-02-23T14:58:31;13.57;56.13
75010;DHT22;63564;46.840;18.336;2023-02-23T15:01:38;13.59;55.64
75010;DHT22;63564;46.840;18.336;2023-02-23T15:04:38;13.49;56.42
75010;DHT22;63564;46.840;18.336;2023-02-23T15:07:40;13.42;57.09
75010;DHT22;63564;46.840;18.336;2023-02-23T15:10:42;12.98;58.48
75010;DHT22;63564;46.840;18.336;2023-02-23T15:13:47;12.97;57.68
75010;DHT22;63564;46.840;18.336;2023-02-23T15:16:49;12.88;57.99
75010;DHT22;63564;46.840;18.336;2023-02-23T15:19:57;12.84;58.99
75010;DHT22;63564;46.840;18.336;2023-02-23T15:23:00;12.64;59.32
75010;DHT22;63564;46.840;18.336;2023-02-23T15:26:17;12.57;59.48
75010;DHT22;63564;46.840;18.336;2023-02-23T15:29:20;12.63;59.05
75010;DHT22;63564;46.840;18.336;2023-02-23T15:32:23;12.41;59.27
75010;DHT22;63564;46.840;18.336;2023-02-23T15:35:25;12.34;59.84
75010;DHT22;63564;46.840;18.336;2023-02-23T15:38:28;12.25;60.25
75010;DHT22;63564;46.840;18.336;2023-02-23T15:41:35;12.23;60.69
75010;DHT22;63564;46.840;18.336;2023-02-23T15:44:36;12.03;61.19
75010;DHT22;63564;46.840;18.336;2023-02-23T15:47:37;11.94;62.38
75010;DHT22;63564;46.840;18.336;2023-02-23T15:50:43;11.77;61.94
75010;DHT22;63564;46.840;18.336;2023-02-23T15:53:49;11.70;63.28
75010;DHT22;63564;46.840;18.336;2023-02-23T15:56:54;11.75;61.88
75010;DHT22;63564;46.840;18.336;2023-02-23T15:59:57;11.70;62.88
75010;DHT22;63564;46.840;18.336;2023-02-23T16:03:01;11.65;62.50
75010;DHT22;63564;46.840;18.336;2023-02-23T16:06:07;11.64;63.29
75010;DHT22;63564;46.840;18.336;2023-02-23T16:12:34;11.53;63.64
75010;DHT22;63564;46.840;18.336;2023-02-23T16:15:36;11.38;64.16
75010;DHT22;63564;46.840;18.336;2023-02-23T16:18:38;11.38;64.23
75010;DHT22;63564;46.840;18.336;2023-02-23T16:21:40;11.20;64.46
75010;DHT22;63564;46.840;18.336;2023-02-23T16:24:40;11.20;64.61
75010;DHT22;63564;46.840;18.336;2023-02-23T16:27:43;11.15;65.41
75010;DHT22;63564;46.840;18.336;2023-02-23T16:30:58;11.06;65.69
75010;DHT22;63564;46.840;18.336;2023-02-23T16:33:58;11.02;66.34
75010;DHT22;63564;46.840;18.336;2023-02-23T16:37:11;10.93;67.01
75010;DHT22;63564;46.840;18.336;2023-02-23T16:40:14;10.86;67.18
75010;DHT22;63564;46.840;18.336;2023-02-23T16:43:15;10.96;66.40
75010;DHT22;63564;46.840;18.336;2023-02-23T16:46:16;10.88;66.32
75010;DHT22;63564;46.840;18.336;2023-02-23T16:49:16;10.68;67.29
75010;DHT22;63564;46.840;18.336;2023-02-23T16:52:20;10.76;67.05
75010;DHT22;63564;46.840;18.336;2023-02-23T16:55:27;10.75;66.88
75010;DHT22;63564;46.840;18.336;2023-02-23T16:58:28;10.75;67.20
75010;DHT22;63564;46.840;18.336;2023-02-23T17:01:30;10.73;67.48
75010;DHT22;63564;46.840;18.336;2023-02-23T17:04:31;10.72;67.06
75010;DHT22;63564;46.840;18.336;2023-02-23T17:07:31;10.51;67.89
75010;DHT22;63564;46.840;18.336;2023-02-23T17:10:33;10.48;69.00
75010;DHT22;63564;46.840;18.336;2023-02-23T17:13:34;10.72;66.50
75010;DHT22;63564;46.840;18.336;2023-02-23T17:16:35;10.68;67.28
75010;DHT22;63564;46.840;18.336;2023-02-23T17:19:36;10.62;66.91
75010;DHT22;63564;46.840;18.336;2023-02-23T17:22:37;10.34;69.70
75010;DHT22;63564;46.840;18.336;2023-02-23T17:25:37;10.29;69.19
75010;DHT22;63564;46.840;18.336;2023-02-23T17:28:39;10.54;67.44
75010;DHT22;63564;46.840;18.336;2023-02-23T17:31:39;10.50;68.07
75010;DHT22;63564;46.840;18.336;2023-02-23T17:34:40;10.41;69.27
75010;DHT22;63564;46.840;18.336;2023-02-23T17:37:41;10.31;68.90
75010;DHT22;63564;46.840;18.336;2023-02-23T17:40:42;10.38;68.09
75010;DHT22;63564;46.840;18.336;2023-02-23T17:43:43;10.27;68.17
75010;DHT22;63564;46.840;18.336;2023-02-23T17:46:44;10.21;68.77
75010;DHT22;63564;46.840;18.336;2023-02-23T17:49:45;10.30;68.31
75010;DHT22;63564;46.840;18.336;2023-02-23T17:52:47;10.34;68.17
75010;DHT22;63564;46.840;18.336;2023-02-23T17:55:51;10.31;68.86
75010;DHT22;63564;46.840;18.336;2023-02-23T17:58:53;10.13;68.93
75010;DHT22;63564;46.840;18.336;2023-02-23T18:01:54;10.09;68.77
75010;DHT22;63564;46.840;18.336;2023-02-23T18:04:54;10.09;69.43
75010;DHT22;63564;46.840;18.336;2023-02-23T18:07:55;10.09;69.16
75010;DHT22;63564;46.840;18.336;2023-02-23T18:10:57;10.07;68.70
75010;DHT22;63564;46.840;18.336;2023-02-23T18:13:59;10.18;68.79
75010;DHT22;63564;46.840;18.336;2023-02-23T18:17:01;10.27;68.20
75010;DHT22;63564;46.840;18.336;2023-02-23T18:20:04;10.30;68.52
75010;DHT22;63564;46.840;18.336;2023-02-23T18:23:05;10.25;68.50
75010;DHT22;63564;46.840;18.336;2023-02-23T18:26:12;10.21;68.76
75010;DHT22;63564;46.840;18.336;2023-02-23T18:29:14;10.16;69.17
75010;DHT22;63564;46.840;18.336;2023-02-23T18:32:18;10.17;69.05
75010;DHT22;63564;46.840;18.336;2023-02-23T18:35:19;10.14;69.35
75010;DHT22;63564;46.840;18.336;2023-02-23T18:38:20;10.21;69.15
75010;DHT22;63564;46.840;18.336;2023-02-23T18:41:22;10.20;69.05
75010;DHT22;63564;46.840;18.336;2023-02-23T18:44:23;10.17;69.38
75010;DHT22;63564;46.840;18.336;2023-02-23T18:47:24;10.17;68.97
75010;DHT22;63564;46.840;18.336;2023-02-23T18:50:25;10.07;69.51
75010;DHT22;63564;46.840;18.336;2023-02-23T18:53:26;10.07;69.39
75010;DHT22;63564;46.840;18.336;2023-02-23T18:56:28;10.05;69.26
75010;DHT22;63564;46.840;18.336;2023-02-23T18:59:31;10.03;70.19
75010;DHT22;63564;46.840;18.336;2023-02-23T19:02:32;9.95;70.39
75010;DHT22;63564;46.840;18.336;2023-02-23T19:05:44;9.82;70.53
75010;DHT22;63564;46.840;18.336;2023-02-23T19:08:51;9.85;70.52
75010;DHT22;63564;46.840;18.336;2023-02-23T19:11:56;9.89;70.26
75010;DHT22;63564;46.840;18.336;2023-02-23T19:14:57;9.90;70.17
75010;DHT22;63564;46.840;18.336;2023-02-23T19:18:02;9.79;71.01
75010;DHT22;63564;46.840;18.336;2023-02-23T19:21:04;9.63;71.71
75010;DHT22;63564;46.840;18.336;2023-02-23T19:24:05;9.54;72.22
75010;DHT22;63564;46.840;18.336;2023-02-23T19:27:06;9.51;72.04
75010;DHT22;63564;46.840;18.336;2023-02-23T19:30:11;9.45;72.54
75010;DHT22;63564;46.840;18.336;2023-02-23T19:33:16;9.39;72.38
75010;DHT22;63564;46.840;18.336;2023-02-23T19:36:19;9.61;71.26
75010;DHT22;63564;46.840;18.336;2023-02-23T19:39:20;9.63;70.50
75010;DHT22;63564;46.840;18.336;2023-02-23T19:42:21;9.71;69.63
75010;DHT22;63564;46.840;18.336;2023-02-23T19:45:23;9.78;69.75
75010;DHT22;63564;46.840;18.336;2023-02-23T19:48:25;9.79;69.15
75010;DHT22;63564;46.840;18.336;2023-02-23T19:51:27;9.79;69.41
75010;DHT22;63564;46.840;18.336;2023-02-23T19:54:28;9.76;68.96
75010;DHT22;63564;46.840;18.336;2023-02-23T19:57:33;9.85;69.02
75010;DHT22;63564;46.840;18.336;2023-02-23T20:00:34;9.85;68.41
75010;DHT22;63564;46.840;18.336;2023-02-23T20:03:38;9.95;68.58
75010;DHT22;63564;46.840;18.336;2023-02-23T20:06:43;9.96;67.85
75010;DHT22;63564;46.840;18.336;2023-02-23T20:09:46;10.10;67.26
75010;DHT22;63564;46.840;18.336;2023-02-23T20:12:47;10.16;66.35
75010;DHT22;63564;46.840;18.336;2023-02-23T20:15:49;10.17;67.02
75010;DHT22;63564;46.840;18.336;2023-02-23T20:18:50;10.16;67.15
75010;DHT22;63564;46.840;18.336;2023-02-23T20:21:50;10.16;66.51
75010;DHT22;63564;46.840;18.336;2023-02-23T20:24:51;10.17;66.86
75010;DHT22;63564;46.840;18.336;2023-02-23T20:27:53;10.14;66.45
75010;DHT22;63564;46.840;18.336;2023-02-23T20:30:54;10.25;66.12
75010;DHT22;63564;46.840;18.336;2023-02-23T20:33:55;10.18;67.10
75010;DHT22;63564;46.840;18.336;2023-02-23T20:36:57;10.13;66.64
75010;DHT22;63564;46.840;18.336;2023-02-23T20:39:58;10.05;67.86
75010;DHT22;63564;46.840;18.336;2023-02-23T20:42:58;10.07;66.74
75010;DHT22;63564;46.840;18.336;2023-02-23T20:46:00;10.10;67.07
75010;DHT22;63564;46.840;18.336;2023-02-23T20:49:00;9.97;66.86
75010;DHT22;63564;46.840;18.336;2023-02-23T20:52:03;9.93;66.62
75010;DHT22;63564;46.840;18.336;2023-02-23T20:55:05;9.86;67.58
75010;DHT22;63564;46.840;18.336;2023-02-23T20:58:07;9.79;68.13